sensor_id;sensor_type;location;lat;lon;timestamp;temperature;humidity
33717;DHT22;20046;50.746;7.072;2023-09-07T00:01:08;16.60;99.90
33717;DHT22;20046;50.746;7.072;2023-09-07T00:03:33;16.50;99.90
33717;DHT22;20046;50.746;7.072;2023-09-07T00:05:59;16.50;99.90
33717;DHT22;20046;50.746;7.072;2023-09-07T00:08:25;16.50;99.90
33717;DHT22;20046;50.746;7.072;2023-09-07T00:10:51;16.50;99.90
33717;DHT22;20046;50.746;7.072;2023-09-07T00:13:17;16.40;99.90
33717;DHT22;20046;50.746;7.072;2023-09-07T00:15:42;16.40;99.90
33717;DHT22;20046;50.746;7.072;2023-09-07T00:18:08;16.40;99.90
33717;DHT22;20046;50.746;7.072;2023-09-07T00:20:34;16.40;99.90
33717;DHT22;20046;50.746;7.072;2023-09-07T00:23:00;16.30;99.90
33717;DHT22;20046;50.746;7.072;2023-09-07T00:25:26;16.30;99.90
33717;DHT22;20046;50.746;7.072;2023-09-07T00:27:52;16.30;99.90
33717;DHT22;20046;50.746;7.072;2023-09-07T00:30:18;16.20;99.90
33717;DHT22;20046;50.746;7.072;2023-09-07T00:32:44;16.20;99.90
33717;DHT22;20046;50.746;7.072;2023-09-07T00:35:09;16.10;99.90
33717;DHT22;20046;50.746;7.072;2023-09-07T00:37:36;16.10;99.90
33717;DHT22;20046;50.746;7.072;2023-09-07T00:40:02;16.10;99.90
33717;DHT22;20046;50.746;7.072;2023-09-07T00:42:29;16.00;99.90
33717;DHT22;20046;50.746;7.072;2023-09-07T00:44:54;16.00;99.90
33717;DHT22;20046;50.746;7.072;2023-09-07T00:47:21;16.10;99.90
33717;DHT22;20046;50.746;7.072;2023-09-07T00:49:47;16.00;99.90
33717;DHT22;20046;50.746;7.072;2023-09-07T00:52:12;16.00;99.90
33717;DHT22;20046;50.746;7.072;2023-09-07T00:54:38;16.00;99.90
33717;DHT22;20046;50.746;7.072;2023-09-07T00:57:06;15.90;99.90
33717;DHT22;20046;50.746;7.072;2023-09-07T00:59:32;15.90;99.90
33717;DHT22;20046;50.746;7.072;2023-09-07T01:01:58;15.90;99.90
33717;DHT22;20046;50.746;7.072;2023-09-07T01:04:24;15.90;99.90
33717;DHT22;20046;50.746;7.072;2023-09-07T01:06:56;15.90;99.90
33717;DHT22;20046;50.746;7.072;2023-09-07T01:09:26;15.80;99.90
33717;DHT22;20046;50.746;7.072;2023-09-07T01:11:53;15.80;99.90
33717;DHT22;20046;50.746;7.072;2023-09-07T01:14:19;15.80;99.90
33717;DHT22;20046;50.746;7.072;2023-09-07T01:16:45;15.80;99.90
33717;DHT22;20046;50.746;7.072;2023-09-07T01:19:11;15.70;99.90
33717;DHT22;20046;50.746;7.072;2023-09-07T01:21:38;15.70;99.90
33717;DHT22;20046;50.746;7.072;2023-09-07T01:24:08;15.70;99.90
33717;DHT22;20046;50.746;7.072;2023-09-07T01:26:37;15.60;99.90
33717;DHT22;20046;50.746;7.072;2023-09-07T01:29:06;15.60;99.90
33717;DHT22;20046;50.746;7.072;2023-09-07T01:31:38;15.60;99.90
33717;DHT22;20046;50.746;7.072;2023-09-07T01:34:05;15.50;99.90
33717;DHT22;20046;50.746;7.072;2023-09-07T01:36:31;15.50;99.90
33717;DHT22;20046;50.746;7.072;2023-09-07T01:38:57;15.50;99.90
33717;DHT22;20046;50.746;7.072;2023-09-07T01:41:32;15.40;99.90
33717;DHT22;20046;50.746;7.072;2023-09-07T01:43:59;15.40;99.90
33717;DHT22;20046;50.746;7.072;2023-09-07T01:46:24;15.40;99.90
33717;DHT22;20046;50.746;7.072;2023-09-07T01:48:50;15.40;99.90
33717;DHT22;20046;50.746;7.072;2023-09-07T01:51:16;15.30;99.90
33717;DHT22;20046;50.746;7.072;2023-09-07T01:53:41;15.30;99.90
33717;DHT22;20046;50.746;7.072;2023-09-07T01:56:07;15.30;99.90
33717;DHT22;20046;50.746;7.072;2023-09-07T01:58:33;15.30;99.90
33717;DHT22;20046;50.746;7.072;2023-09-07T02:00:59;15.20;99.90
33717;DHT22;20046;50.746;7.072;2023-09-07T02:03:25;15.30;99.90
33717;DHT22;20046;50.746;7.072;2023-09-07T02:05:52;15.30;99.90
33717;DHT22;20046;50.746;7.072;2023-09-07T02:08:18;15.30;99.90
33717;DHT22;20046;50.746;7.072;2023-09-07T02:10:44;15.30;99.90
33717;DHT22;20046;50.746;7.072;2023-09-07T02:13:09;15.30;99.90
33717;DHT22;20046;50.746;7.072;2023-09-07T02:15:38;15.40;99.90
33717;DHT22;20046;50.746;7.072;2023-09-07T02:18:05;15.40;99.90
33717;DHT22;20046;50.746;7.072;2023-09-07T02:20:32;15.30;99.90
33717;DHT22;20046;50.746;7.072;2023-09-07T02:22:57;15.30;99.90
33717;DHT22;20046;50.746;7.072;2023-09-07T02:25:23;15.30;99.90
33717;DHT22;20046;50.746;7.072;2023-09-07T02:27:49;15.30;99.90
33717;DHT22;20046;50.746;7.072;2023-09-07T02:30:15;15.30;99.90
33717;DHT22;20046;50.746;7.072;2023-09-07T02:32:43;15.30;99.90
33717;DHT22;20046;50.746;7.072;2023-09-07T02:35:09;15.20;99.90
33717;DHT22;20046;50.746;7.072;2023-09-07T02:37:36;15.30;99.90
33717;DHT22;20046;50.746;7.072;2023-09-07T02:40:02;15.30;99.90
33717;DHT22;20046;50.746;7.072;2023-09-07T02:42:32;15.30;99.90
33717;DHT22;20046;50.746;7.072;2023-09-07T02:44:57;15.40;99.90
33717;DHT22;20046;50.746;7.072;2023-09-07T02:47:23;15.30;99.90
33717;DHT22;20046;50.746;7.072;2023-09-07T02:49:48;15.30;99.90
33717;DHT22;20046;50.746;7.072;2023-09-07T02:52:14;15.30;99.90
33717;DHT22;20046;50.746;7.072;2023-09-07T02:54:40;15.20;99.90
33717;DHT22;20046;50.746;7.072;2023-09-07T02:57:07;15.20;99.90
33717;DHT22;20046;50.746;7.072;2023-09-07T02:59:32;15.20;99.90
33717;DHT22;20046;50.746;7.072;2023-09-07T03:01:58;15.10;99.90
33717;DHT22;20046;50.746;7.072;2023-09-07T03:04:24;15.10;99.90
33717;DHT22;20046;50.746;7.072;2023-09-07T03:06:49;15.00;99.90
33717;DHT22;20046;50.746;7.072;2023-09-07T03:09:15;15.00;99.90
33717;DHT22;20046;50.746;7.072;2023-09-07T03:11:40;14.90;99.90
33717;DHT22;20046;50.746;7.072;2023-09-07T03:14:06;14.80;99.90
33717;DHT22;20046;50.746;7.072;2023-09-07T03:16:31;14.80;99.90
33717;DHT22;20046;50.746;7.072;2023-09-07T03:18:57;14.70;99.90
33717;DHT22;20046;50.746;7.072;2023-09-07T03:21:23;14.70;99.90
33717;DHT22;20046;50.746;7.072;2023-09-07T03:23:55;14.60;99.90
33717;DHT22;20046;50.746;7.072;2023-09-07T03:26:21;14.70;99.90
33717;DHT22;20046;50.746;7.072;2023-09-07T03:28:46;14.70;99.90
33717;DHT22;20046;50.746;7.072;2023-09-07T03:31:12;14.70;99.90
33717;DHT22;20046;50.746;7.072;2023-09-07T03:33:37;14.70;99.90
33717;DHT22;20046;50.746;7.072;2023-09-07T03:36:03;14.80;99.90
33717;DHT22;20046;50.746;7.072;2023-09-07T03:38:29;14.80;99.90
33717;DHT22;20046;50.746;7.072;2023-09-07T03:40:55;14.80;99.90
33717;DHT22;20046;50.746;7.072;2023-09-07T03:43:21;14.80;99.90
33717;DHT22;20046;50.746;7.072;2023-09-07T03:45:46;14.80;99.90
33717;DHT22;20046;50.746;7.072;2023-09-07T03:48:12;14.80;99.90
33717;DHT22;20046;50.746;7.072;2023-09-07T03:50:38;14.90;99.90
33717;DHT22;20046;50.746;7.072;2023-09-07T03:53:03;14.80;99.90
33717;DHT22;20046;50.746;7.072;2023-09-07T03:55:29;14.80;99.90
33717;DHT22;20046;50.746;7.072;2023-09-07T03:57:54;14.90;99.90
33717;DHT22;20046;50.746;7.072;2023-09-07T04:00:20;14.90;99.90
33717;DHT22;20046;50.746;7.072;2023-09-07T04:02:46;15.00;99.90
33717;DHT22;20046;50.746;7.072;2023-09-07T04:05:12;15.10;99.90
33717;DHT22;20046;50.746;7.072;2023-09-07T04:07:37;15.10;99.90
33717;DHT22;20046;50.746;7.072;2023-09-07T04:10:04;15.20;99.90
33717;DHT22;20046;50.746;7.072;2023-09-07T04:12:30;15.10;99.90
33717;DHT22;20046;50.746;7.072;2023-09-07T04:14:56;15.10;99.90
33717;DHT22;20046;50.746;7.072;2023-09-07T04:17:22;15.00;99.90
33717;DHT22;20046;50.746;7.072;2023-09-07T04:19:47;15.00;99.90
33717;DHT22;20046;50.746;7.072;2023-09-07T04:22:13;15.00;99.90
33717;DHT22;20046;50.746;7.072;2023-09-07T04:24:39;15.10;99.90
33717;DHT22;20046;50.746;7.072;2023-09-07T04:27:04;15.10;99.90
33717;DHT22;20046;50.746;7.072;2023-09-07T04:29:30;15.00;99.90
33717;DHT22;20046;50.746;7.072;2023-09-07T04:31:56;15.00;99.90
33717;DHT22;20046;50.746;7.072;2023-09-07T04:34:22;14.90;99.90
33717;DHT22;20046;50.746;7.072;2023-09-07T04:36:48;14.90;99.90
33717;DHT22;20046;50.746;7.072;2023-09-07T04:39:14;14.90;99.90
33717;DHT22;20046;50.746;7.072;2023-09-07T04:41:40;14.90;99.90
33717;DHT22;20046;50.746;7.072;2023-09-07T04:44:06;14.90;99.90
33717;DHT22;20046;50.746;7.072;2023-09-07T04:46:31;14.90;99.90
33717;DHT22;20046;50.746;7.072;2023-09-07T04:48:57;14.90;99.90
33717;DHT22;20046;50.746;7.072;2023-09-07T04:51:22;14.90;99.90
33717;DHT22;20046;50.746;7.072;2023-09-07T04:53:49;14.80;99.90
33717;DHT22;20046;50.746;7.072;2023-09-07T04:56:15;14.80;99.90
33717;DHT22;20046;50.746;7.072;2023-09-07T04:58:42;14.80;99.90
33717;DHT22;20046;50.746;7.072;2023-09-07T05:01:09;14.70;99.90
33717;DHT22;20046;50.746;7.072;2023-09-07T05:03:35;14.70;99.90
33717;DHT22;20046;50.746;7.072;2023-09-07T05:06:02;14.70;99.90
33717;DHT22;20046;50.746;7.072;2023-09-07T05:08:29;14.70;99.90
33717;DHT22;20046;50.746;7.072;2023-09-07T05:10:59;14.80;99.90
33717;DHT22;20046;50.746;7.072;2023-09-07T05:13:25;14.80;99.90
33717;DHT22;20046;50.746;7.072;2023-09-07T05:15:52;14.90;99.90
33717;DHT22;20046;50.746;7.072;2023-09-07T05:18:18;15.00;99.90
33717;DHT22;20046;50.746;7.072;2023-09-07T05:20:44;15.10;99.90
33717;DHT22;20046;50.746;7.072;2023-09-07T05:23:13;15.20;99.90
33717;DHT22;20046;50.746;7.072;2023-09-07T05:25:49;15.30;99.90
33717;DHT22;20046;50.746;7.072;2023-09-07T05:28:16;15.40;99.90
33717;DHT22;20046;50.746;7.072;2023-09-07T05:30:42;15.50;99.90
33717;DHT22;20046;50.746;7.072;2023-09-07T05:33:12;15.60;99.90
33717;DHT22;20046;50.746;7.072;2023-09-07T05:35:38;15.80;99.90
33717;DHT22;20046;50.746;7.072;2023-09-07T05:38:06;15.90;99.90
33717;DHT22;20046;50.746;7.072;2023-09-07T05:40:36;16.10;99.90
33717;DHT22;20046;50.746;7.072;2023-09-07T05:43:03;16.20;99.90
33717;DHT22;20046;50.746;7.072;2023-09-07T05:45:39;16.40;99.90
33717;DHT22;20046;50.746;7.072;2023-09-07T05:48:05;16.50;99.90
33717;DHT22;20046;50.746;7.072;2023-09-07T05:50:35;16.60;99.90
33717;DHT22;20046;50.746;7.072;2023-09-07T05:53:01;16.80;99.90
33717;DHT22;20046;50.746;7.072;2023-09-07T05:55:27;16.90;99.90
33717;DHT22;20046;50.746;7.072;2023-09-07T05:57:55;17.00;99.90
33717;DHT22;20046;50.746;7.072;2023-09-07T06:00:21;17.20;99.90
33717;DHT22;20046;50.746;7.072;2023-09-07T06:02:46;17.40;99.90
33717;DHT22;20046;50.746;7.072;2023-09-07T06:05:12;17.50;99.90
33717;DHT22;20046;50.746;7.072;2023-09-07T06:07:38;17.70;99.90
33717;DHT22;20046;50.746;7.072;2023-09-07T06:10:04;17.80;99.90
33717;DHT22;20046;50.746;7.072;2023-09-07T06:12:34;18.00;99.90
33717;DHT22;20046;50.746;7.072;2023-09-07T06:15:00;18.10;99.90
33717;DHT22;20046;50.746;7.072;2023-09-07T06:17:27;18.30;99.90
33717;DHT22;20046;50.746;7.072;2023-09-07T06:19:53;18.50;99.90
33717;DHT22;20046;50.746;7.072;2023-09-07T06:22:19;18.70;99.90
33717;DHT22;20046;50.746;7.072;2023-09-07T06:24:44;18.80;99.90
33717;DHT22;20046;50.746;7.072;2023-09-07T06:27:10;19.00;99.90
33717;DHT22;20046;50.746;7.072;2023-09-07T06:29:35;19.10;99.90
33717;DHT22;20046;50.746;7.072;2023-09-07T06:32:01;19.30;99.90
33717;DHT22;20046;50.746;7.072;2023-09-07T06:34:27;19.40;99.90
33717;DHT22;20046;50.746;7.072;2023-09-07T06:36:52;19.60;99.90
33717;DHT22;20046;50.746;7.072;2023-09-07T06:39:18;19.70;99.90
33717;DHT22;20046;50.746;7.072;2023-09-07T06:41:46;19.90;99.90
33717;DHT22;20046;50.746;7.072;2023-09-07T06:44:12;20.30;99.90
33717;DHT22;20046;50.746;7.072;2023-09-07T06:46:38;20.50;99.90
33717;DHT22;20046;50.746;7.072;2023-09-07T06:49:03;20.70;99.90
33717;DHT22;20046;50.746;7.072;2023-09-07T06:51:30;20.70;99.90
33717;DHT22;20046;50.746;7.072;2023-09-07T06:53:56;20.60;99.90
33717;DHT22;20046;50.746;7.072;2023-09-07T06:56:22;20.50;99.90
33717;DHT22;20046;50.746;7.072;2023-09-07T06:58:48;20.50;99.90
33717;DHT22;20046;50.746;7.072;2023-09-07T07:01:13;20.50;99.90
33717;DHT22;20046;50.746;7.072;2023-09-07T07:03:39;20.30;99.90
33717;DHT22;20046;50.746;7.072;2023-09-07T07:06:04;20.30;99.90
33717;DHT22;20046;50.746;7.072;2023-09-07T07:08:30;20.20;99.90
33717;DHT22;20046;50.746;7.072;2023-09-07T07:10:56;20.20;99.90
33717;DHT22;20046;50.746;7.072;2023-09-07T07:13:21;20.30;99.90
33717;DHT22;20046;50.746;7.072;2023-09-07T07:15:47;20.30;99.90
33717;DHT22;20046;50.746;7.072;2023-09-07T07:18:12;20.50;99.90
33717;DHT22;20046;50.746;7.072;2023-09-07T07:20:39;20.50;99.90
33717;DHT22;20046;50.746;7.072;2023-09-07T07:23:05;20.60;99.90
33717;DHT22;20046;50.746;7.072;2023-09-07T07:25:34;20.70;99.90
33717;DHT22;20046;50.746;7.072;2023-09-07T07:28:00;20.80;99.90
33717;DHT22;20046;50.746;7.072;2023-09-07T07:30:30;20.90;99.90
33717;DHT22;20046;50.746;7.072;2023-09-07T07:32:56;21.00;99.90
33717;DHT22;20046;50.746;7.072;2023-09-07T07:35:22;21.30;99.90
33717;DHT22;20046;50.746;7.072;2023-09-07T07:37:49;21.50;99.90
33717;DHT22;20046;50.746;7.072;2023-09-07T07:40:14;21.60;99.90
33717;DHT22;20046;50.746;7.072;2023-09-07T07:42:40;21.50;99.90
33717;DHT22;20046;50.746;7.072;2023-09-07T07:45:06;21.60;99.90
33717;DHT22;20046;50.746;7.072;2023-09-07T07:47:32;21.70;99.90
33717;DHT22;20046;50.746;7.072;2023-09-07T07:49:57;21.80;99.90
33717;DHT22;20046;50.746;7.072;2023-09-07T07:52:23;22.00;99.90
33717;DHT22;20046;50.746;7.072;2023-09-07T07:54:48;22.10;99.90
33717;DHT22;20046;50.746;7.072;2023-09-07T07:57:14;22.20;99.90
33717;DHT22;20046;50.746;7.072;2023-09-07T07:59:40;22.50;99.90
33717;DHT22;20046;50.746;7.072;2023-09-07T08:02:05;22.70;99.90
33717;DHT22;20046;50.746;7.072;2023-09-07T08:04:31;22.90;99.90
33717;DHT22;20046;50.746;7.072;2023-09-07T08:06:58;22.90;99.90
33717;DHT22;20046;50.746;7.072;2023-09-07T08:09:31;22.90;99.90
33717;DHT22;20046;50.746;7.072;2023-09-07T08:11:57;23.00;99.90
33717;DHT22;20046;50.746;7.072;2023-09-07T08:14:24;23.10;99.90
33717;DHT22;20046;50.746;7.072;2023-09-07T08:16:50;23.30;99.90
33717;DHT22;20046;50.746;7.072;2023-09-07T08:19:15;23.60;99.90
33717;DHT22;20046;50.746;7.072;2023-09-07T08:21:42;24.20;99.90
33717;DHT22;20046;50.746;7.072;2023-09-07T08:24:08;25.30;99.90
33717;DHT22;20046;50.746;7.072;2023-09-07T08:26:35;26.70;99.90
33717;DHT22;20046;50.746;7.072;2023-09-07T08:29:01;27.60;99.90
33717;DHT22;20046;50.746;7.072;2023-09-07T08:31:34;28.80;99.90
33717;DHT22;20046;50.746;7.072;2023-09-07T08:34:04;29.60;99.90
33717;DHT22;20046;50.746;7.072;2023-09-07T08:36:30;30.30;99.30
33717;DHT22;20046;50.746;7.072;2023-09-07T08:39:06;30.70;97.30
33717;DHT22;20046;50.746;7.072;2023-09-07T08:41:40;31.20;96.00
33717;DHT22;20046;50.746;7.072;2023-09-07T08:44:12;31.60;94.80
33717;DHT22;20046;50.746;7.072;2023-09-07T08:46:40;31.90;94.40
33717;DHT22;20046;50.746;7.072;2023-09-07T08:49:06;32.20;93.60
33717;DHT22;20046;50.746;7.072;2023-09-07T08:51:32;32.40;92.20
33717;DHT22;20046;50.746;7.072;2023-09-07T08:53:58;32.50;91.50
33717;DHT22;20046;50.746;7.072;2023-09-07T08:56:24;32.80;90.90
33717;DHT22;20046;50.746;7.072;2023-09-07T08:58:50;33.20;90.70
33717;DHT22;20046;50.746;7.072;2023-09-07T09:01:17;33.50;90.00
33717;DHT22;20046;50.746;7.072;2023-09-07T09:03:43;33.40;88.60
33717;DHT22;20046;50.746;7.072;2023-09-07T09:06:10;32.90;88.70
33717;DHT22;20046;50.746;7.072;2023-09-07T09:08:50;32.20;89.00
33717;DHT22;20046;50.746;7.072;2023-09-07T09:11:20;30.80;90.20
33717;DHT22;20046;50.746;7.072;2023-09-07T09:13:46;30.40;91.30
33717;DHT22;20046;50.746;7.072;2023-09-07T09:16:12;30.30;91.50
33717;DHT22;20046;50.746;7.072;2023-09-07T09:18:38;30.20;91.80
33717;DHT22;20046;50.746;7.072;2023-09-07T09:21:14;29.70;91.70
33717;DHT22;20046;50.746;7.072;2023-09-07T09:23:40;29.10;92.70
33717;DHT22;20046;50.746;7.072;2023-09-07T09:26:06;28.40;93.00
33717;DHT22;20046;50.746;7.072;2023-09-07T09:28:33;28.00;93.70
33717;DHT22;20046;50.746;7.072;2023-09-07T09:31:03;27.50;94.00
33717;DHT22;20046;50.746;7.072;2023-09-07T09:33:32;27.30;94.60
33717;DHT22;20046;50.746;7.072;2023-09-07T09:35:58;27.00;95.00
33717;DHT22;20046;50.746;7.072;2023-09-07T09:38:25;26.90;95.40
33717;DHT22;20046;50.746;7.072;2023-09-07T09:40:51;26.80;95.50
33717;DHT22;20046;50.746;7.072;2023-09-07T09:43:19;26.60;95.60
33717;DHT22;20046;50.746;7.072;2023-09-07T09:45:45;26.50;96.10
33717;DHT22;20046;50.746;7.072;2023-09-07T09:48:12;26.50;95.70
33717;DHT22;20046;50.746;7.072;2023-09-07T09:50:39;26.40;96.30
33717;DHT22;20046;50.746;7.072;2023-09-07T09:53:06;26.40;96.70
33717;DHT22;20046;50.746;7.072;2023-09-07T09:55:33;26.30;96.90
33717;DHT22;20046;50.746;7.072;2023-09-07T09:57:59;26.30;96.50
33717;DHT22;20046;50.746;7.072;2023-09-07T10:00:25;26.20;96.80
33717;DHT22;20046;50.746;7.072;2023-09-07T10:03:02;26.20;96.90
33717;DHT22;20046;50.746;7.072;2023-09-07T10:05:30;26.20;97.00
33717;DHT22;20046;50.746;7.072;2023-09-07T10:08:01;26.20;96.90
33717;DHT22;20046;50.746;7.072;2023-09-07T10:10:34;26.10;97.10
33717;DHT22;20046;50.746;7.072;2023-09-07T10:13:01;26.20;97.70
33717;DHT22;20046;50.746;7.072;2023-09-07T10:15:27;26.30;97.50
33717;DHT22;20046;50.746;7.072;2023-09-07T10:18:13;26.50;98.20
33717;DHT22;20046;50.746;7.072;2023-09-07T10:20:56;26.60;97.60
33717;DHT22;20046;50.746;7.072;2023-09-07T10:23:38;26.70;97.60
33717;DHT22;20046;50.746;7.072;2023-09-07T10:26:05;26.80;97.70
33717;DHT22;20046;50.746;7.072;2023-09-07T10:28:35;26.80;97.50
33717;DHT22;20046;50.746;7.072;2023-09-07T10:31:05;27.00;98.20
33717;DHT22;20046;50.746;7.072;2023-09-07T10:33:32;27.10;98.40
33717;DHT22;20046;50.746;7.072;2023-09-07T10:35:58;27.30;98.30
33717;DHT22;20046;50.746;7.072;2023-09-07T10:38:24;27.50;98.00
33717;DHT22;20046;50.746;7.072;2023-09-07T10:40:55;27.60;97.00
33717;DHT22;20046;50.746;7.072;2023-09-07T10:43:31;27.80;97.00
33717;DHT22;20046;50.746;7.072;2023-09-07T10:45:58;28.00;96.50
33717;DHT22;20046;50.746;7.072;2023-09-07T10:48:25;28.10;96.50
33717;DHT22;20046;50.746;7.072;2023-09-07T10:50:51;28.10;95.80
33717;DHT22;20046;50.746;7.072;2023-09-07T10:53:31;28.20;96.20
33717;DHT22;20046;50.746;7.072;2023-09-07T10:56:05;28.60;96.00
33717;DHT22;20046;50.746;7.072;2023-09-07T10:58:35;29.00;95.70
33717;DHT22;20046;50.746;7.072;2023-09-07T11:01:05;29.90;94.80
33717;DHT22;20046;50.746;7.072;2023-09-07T11:03:31;31.30;94.00
33717;DHT22;20046;50.746;7.072;2023-09-07T11:06:12;32.80;92.30
33717;DHT22;20046;50.746;7.072;2023-09-07T11:08:39;34.20;90.30
33717;DHT22;20046;50.746;7.072;2023-09-07T11:11:05;34.80;87.70
33717;DHT22;20046;50.746;7.072;2023-09-07T11:13:31;35.10;85.50
33717;DHT22;20046;50.746;7.072;2023-09-07T11:15:57;35.30;84.90
33717;DHT22;20046;50.746;7.072;2023-09-07T11:18:25;34.80;84.20
33717;DHT22;20046;50.746;7.072;2023-09-07T11:20:51;34.60;85.30
33717;DHT22;20046;50.746;7.072;2023-09-07T11:23:18;34.50;84.20
33717;DHT22;20046;50.746;7.072;2023-09-07T11:25:46;34.90;83.10
33717;DHT22;20046;50.746;7.072;2023-09-07T11:28:11;35.50;81.70
33717;DHT22;20046;50.746;7.072;2023-09-07T11:30:47;36.30;79.80
33717;DHT22;20046;50.746;7.072;2023-09-07T11:33:15;37.40;78.00
33717;DHT22;20046;50.746;7.072;2023-09-07T11:35:41;38.50;76.30
33717;DHT22;20046;50.746;7.072;2023-09-07T11:38:07;39.30;71.40
33717;DHT22;20046;50.746;7.072;2023-09-07T11:40:35;39.50;69.70
33717;DHT22;20046;50.746;7.072;2023-09-07T11:43:01;40.10;69.40
33717;DHT22;20046;50.746;7.072;2023-09-07T11:45:27;40.60;65.00
33717;DHT22;20046;50.746;7.072;2023-09-07T11:47:53;39.70;63.70
33717;DHT22;20046;50.746;7.072;2023-09-07T11:50:18;40.00;63.70
33717;DHT22;20046;50.746;7.072;2023-09-07T11:52:45;40.00;62.30
33717;DHT22;20046;50.746;7.072;2023-09-07T11:55:13;40.20;61.30
33717;DHT22;20046;50.746;7.072;2023-09-07T11:57:39;40.20;60.20
33717;DHT22;20046;50.746;7.072;2023-09-07T12:00:07;39.90;59.00
33717;DHT22;20046;50.746;7.072;2023-09-07T12:02:38;40.00;58.70
33717;DHT22;20046;50.746;7.072;2023-09-07T12:05:04;39.70;59.40
33717;DHT22;20046;50.746;7.072;2023-09-07T12:07:30;39.30;58.20
33717;DHT22;20046;50.746;7.072;2023-09-07T12:09:56;39.30;58.70
33717;DHT22;20046;50.746;7.072;2023-09-07T12:12:23;40.00;58.10
33717;DHT22;20046;50.746;7.072;2023-09-07T12:14:48;40.70;57.00
33717;DHT22;20046;50.746;7.072;2023-09-07T12:17:14;40.90;55.90
33717;DHT22;20046;50.746;7.072;2023-09-07T12:19:40;41.30;54.70
33717;DHT22;20046;50.746;7.072;2023-09-07T12:22:07;41.30;55.40
33717;DHT22;20046;50.746;7.072;2023-09-07T12:24:33;41.90;54.50
33717;DHT22;20046;50.746;7.072;2023-09-07T12:26:59;41.20;54.50
33717;DHT22;20046;50.746;7.072;2023-09-07T12:29:25;41.90;53.60
33717;DHT22;20046;50.746;7.072;2023-09-07T12:31:51;42.20;52.30
33717;DHT22;20046;50.746;7.072;2023-09-07T12:34:16;42.30;52.10
33717;DHT22;20046;50.746;7.072;2023-09-07T12:36:42;41.90;52.00
33717;DHT22;20046;50.746;7.072;2023-09-07T12:39:08;42.60;51.70
33717;DHT22;20046;50.746;7.072;2023-09-07T12:41:33;42.60;50.50
33717;DHT22;20046;50.746;7.072;2023-09-07T12:43:59;43.50;49.90
33717;DHT22;20046;50.746;7.072;2023-09-07T12:46:25;43.20;50.00
33717;DHT22;20046;50.746;7.072;2023-09-07T12:48:50;43.30;49.20
33717;DHT22;20046;50.746;7.072;2023-09-07T12:51:16;43.10;49.30
33717;DHT22;20046;50.746;7.072;2023-09-07T12:53:42;43.20;49.70
33717;DHT22;20046;50.746;7.072;2023-09-07T12:56:07;43.30;49.40
33717;DHT22;20046;50.746;7.072;2023-09-07T12:58:33;43.50;48.30
33717;DHT22;20046;50.746;7.072;2023-09-07T13:00:58;43.30;48.30
33717;DHT22;20046;50.746;7.072;2023-09-07T13:03:24;43.50;48.30
33717;DHT22;20046;50.746;7.072;2023-09-07T13:05:49;43.50;47.90
33717;DHT22;20046;50.746;7.072;2023-09-07T13:08:15;43.40;47.90
33717;DHT22;20046;50.746;7.072;2023-09-07T13:10:41;43.40;47.60
33717;DHT22;20046;50.746;7.072;2023-09-07T13:13:07;43.30;48.80
33717;DHT22;20046;50.746;7.072;2023-09-07T13:15:33;43.00;48.00
33717;DHT22;20046;50.746;7.072;2023-09-07T13:17:58;44.30;47.50
33717;DHT22;20046;50.746;7.072;2023-09-07T13:20:24;45.20;46.50
33717;DHT22;20046;50.746;7.072;2023-09-07T13:22:50;45.50;45.30
33717;DHT22;20046;50.746;7.072;2023-09-07T13:25:15;45.20;45.40
33717;DHT22;20046;50.746;7.072;2023-09-07T13:27:41;43.00;46.80
33717;DHT22;20046;50.746;7.072;2023-09-07T13:30:07;42.80;47.10
33717;DHT22;20046;50.746;7.072;2023-09-07T13:32:37;42.60;47.60
33717;DHT22;20046;50.746;7.072;2023-09-07T13:35:04;43.20;47.00
33717;DHT22;20046;50.746;7.072;2023-09-07T13:37:30;43.10;47.10
33717;DHT22;20046;50.746;7.072;2023-09-07T13:39:55;43.40;46.60
33717;DHT22;20046;50.746;7.072;2023-09-07T13:42:21;43.80;46.00
33717;DHT22;20046;50.746;7.072;2023-09-07T13:44:46;43.60;46.40
33717;DHT22;20046;50.746;7.072;2023-09-07T13:47:13;43.80;46.10
33717;DHT22;20046;50.746;7.072;2023-09-07T13:49:38;43.90;45.40
33717;DHT22;20046;50.746;7.072;2023-09-07T13:52:04;42.20;46.20
33717;DHT22;20046;50.746;7.072;2023-09-07T13:54:30;42.60;46.40
33717;DHT22;20046;50.746;7.072;2023-09-07T13:56:56;42.40;46.70
33717;DHT22;20046;50.746;7.072;2023-09-07T13:59:21;42.60;46.30
33717;DHT22;20046;50.746;7.072;2023-09-07T14:01:47;42.40;46.10
33717;DHT22;20046;50.746;7.072;2023-09-07T14:04:14;42.40;46.70
33717;DHT22;20046;50.746;7.072;2023-09-07T14:06:40;42.30;47.00
33717;DHT22;20046;50.746;7.072;2023-09-07T14:09:05;42.20;47.20
33717;DHT22;20046;50.746;7.072;2023-09-07T14:11:32;42.00;46.30
33717;DHT22;20046;50.746;7.072;2023-09-07T14:13:58;40.90;46.90
33717;DHT22;20046;50.746;7.072;2023-09-07T14:16:24;41.20;47.70
33717;DHT22;20046;50.746;7.072;2023-09-07T14:18:50;41.50;47.80
33717;DHT22;20046;50.746;7.072;2023-09-07T14:21:16;41.20;47.40
33717;DHT22;20046;50.746;7.072;2023-09-07T14:23:43;40.70;47.50
33717;DHT22;20046;50.746;7.072;2023-09-07T14:26:08;40.20;48.10
33717;DHT22;20046;50.746;7.072;2023-09-07T14:28:35;39.80;49.20
33717;DHT22;20046;50.746;7.072;2023-09-07T14:31:01;39.10;50.30
33717;DHT22;20046;50.746;7.072;2023-09-07T14:33:29;38.40;51.10
33717;DHT22;20046;50.746;7.072;2023-09-07T14:35:55;37.10;52.20
33717;DHT22;20046;50.746;7.072;2023-09-07T14:38:21;36.00;53.50
33717;DHT22;20046;50.746;7.072;2023-09-07T14:40:48;34.50;54.40
33717;DHT22;20046;50.746;7.072;2023-09-07T14:43:15;33.80;55.80
33717;DHT22;20046;50.746;7.072;2023-09-07T14:45:43;33.40;56.50
33717;DHT22;20046;50.746;7.072;2023-09-07T14:48:08;32.90;56.90
33717;DHT22;20046;50.746;7.072;2023-09-07T14:50:34;32.60;57.90
33717;DHT22;20046;50.746;7.072;2023-09-07T14:52:59;32.40;58.40
33717;DHT22;20046;50.746;7.072;2023-09-07T14:55:25;31.90;58.40
33717;DHT22;20046;50.746;7.072;2023-09-07T14:57:51;31.70;59.20
33717;DHT22;20046;50.746;7.072;2023-09-07T15:00:17;31.40;59.40
33717;DHT22;20046;50.746;7.072;2023-09-07T15:02:42;31.20;59.70
33717;DHT22;20046;50.746;7.072;2023-09-07T15:05:08;31.10;60.10
33717;DHT22;20046;50.746;7.072;2023-09-07T15:07:33;31.00;60.00
33717;DHT22;20046;50.746;7.072;2023-09-07T15:09:59;30.90;60.50
33717;DHT22;20046;50.746;7.072;2023-09-07T15:12:24;31.00;60.50
33717;DHT22;20046;50.746;7.072;2023-09-07T15:14:50;30.90;60.00
33717;DHT22;20046;50.746;7.072;2023-09-07T15:17:16;30.80;59.90
33717;DHT22;20046;50.746;7.072;2023-09-07T15:19:42;30.80;59.80
33717;DHT22;20046;50.746;7.072;2023-09-07T15:22:08;30.80;59.80
33717;DHT22;20046;50.746;7.072;2023-09-07T15:24:33;30.80;60.10
33717;DHT22;20046;50.746;7.072;2023-09-07T15:27:06;30.70;59.90